Latest Coastal Weather Observations for Port Pirie Airport AWS

IDS60701

Issued at 1:01 am CST Monday 15 April 2024 (issued every 10 minutes, with the page automatically refreshed every 10 minutes)

About coastal observations | Map of coastal stations | Coastal observations for SA | Marine services | Other Formats
Station Details ID: 021139 Name: PORT PIRIE AERODROME AWS Lat: -33.24 Lon: 138.00 Height: 12.0 m
Data from the previous 72 hours. | See also: Recent months for locations in South Australia
Date/Time
CST
Wind Sea
Height
m
Swell Vis
km
Cloud Weather Temp
°C
Press
MSL
hPa
Rain since
9am
mm
Dir  Spd
kts
Gust
kts
Height
m
Period
s
Dir
15/01:00am SE 11 13 - - - - - - - 12.9 1023.3 0.0
15/12:30am SSE 11 12 - - - - - - - 12.7 1023.4 0.0
15/12:00am SSE 11 13 - - - - - - - 12.6 1023.4 0.0
 
Date/Time
CST
Wind Sea
Height
m
Swell Vis
km
Cloud Weather Temp
°C
Press
MSL
hPa
Rain since
9am
mm
Dir  Spd
kts
Gust
kts
Height
m
Period
s
Dir
14/11:30pm SSE 8 9 - - - - - - - 12.1 1023.6 0.0
14/11:00pm SE 10 11 - - - - - - - 13.7 1023.6 0.0
14/10:30pm SE 10 11 - - - - - - - 14.3 1023.7 0.0
14/10:00pm ESE 9 11 - - - - - - - 14.8 1023.8 0.0
14/09:30pm ESE 8 10 - - - - - - - 14.9 1023.6 0.0
14/09:00pm SE 10 12 - - - - - - - 14.7 1023.5 0.0
14/08:30pm SSE 7 8 - - - - - - - 12.7 1023.4 0.0
14/08:00pm SE 7 8 - - - - - - - 13.0 1023.2 0.0
14/07:30pm E 7 8 - - - - - - - 15.6 1022.9 0.0
14/07:00pm ESE 8 9 - - - - - - - 16.8 1022.6 0.0
14/06:30pm SE 10 11 - - - - - - - 18.0 1022.3 0.0
14/06:00pm SE 9 10 - - - - - - - 19.5 1022.1 0.0
14/05:30pm SSE 11 12 - - - - - - - 21.8 1021.9 0.0
14/05:00pm S 10 13 - - - - - - - 23.3 1021.7 0.0
14/04:30pm S 9 13 - - - - - - - 23.7 1021.5 0.0
14/04:00pm SSW 9 11 - - - - - - - 23.5 1021.4 0.0
14/03:30pm SW 10 13 - - - - - - - 23.2 1021.6 0.0
14/03:00pm SW 10 13 - - - - - - - 24.6 1021.5 0.0
14/02:30pm WSW 11 17 - - - - - - - 24.3 1021.5 0.0
14/02:00pm W 8 13 - - - - - - - 24.9 1021.6 0.0
14/01:30pm NW 8 12 - - - - - - - 24.6 1021.8 0.0
14/01:00pm W 8 11 - - - - - - - 24.2 1022.1 0.0
14/12:30pm NW 8 14 - - - - - - - 24.2 1022.5 0.0
14/12:00pm WNW 6 12 - - - - - - - 23.8 1022.8 0.0
14/11:30am NW 8 12 - - - - - - - 22.5 1023.3 0.0
14/11:00am W 7 11 - - - - - - - 22.2 1023.5 0.0
14/10:30am W 4 6 - - - - - - - 19.9 1023.5 0.0
14/10:00am NNW 5 6 - - - - - - - 19.1 1023.8 0.0
14/09:30am NNW 6 9 - - - - - - - 18.9 1023.9 0.0
14/09:00am NNW 6 8 - - - - - - - 18.1 1024.0 0.0
14/08:30am NNE 2 4 - - - - - - - 16.1 1023.7 0.0
14/08:00am E 3 4 - - - - - - - 12.6 1023.4 0.0
14/07:30am CALM 0 0 - - - - - - - 9.1 1023.2 0.0
14/07:00am ESE 5 6 - - - - - - - 7.5 1022.7 0.0
14/06:30am ESE 4 5 - - - - - - - 6.6 1022.5 0.0
14/06:00am SE 5 6 - - - - - - - 7.0 1022.4 0.0
14/05:30am SE 6 7 - - - - - - - 7.0 1022.3 0.0
14/05:00am SSE 6 7 - - - - - - - 7.4 1022.0 0.0
14/04:30am SSE 7 8 - - - - - - - 7.3 1021.8 0.0
14/04:00am SE 7 8 - - - - - - - 7.0 1021.8 0.0
14/03:30am SE 8 8 - - - - - - - 7.4 1021.8 0.0
14/03:00am SE 7 8 - - - - - - - 7.3 1021.9 0.0
14/02:30am SE 8 9 - - - - - - - 7.8 1022.2 0.0
14/02:00am SE 6 7 - - - - - - - 8.5 1022.6 0.0
14/01:30am NE 4 5 - - - - - - - 8.6 1022.8 0.0
14/01:00am ESE 4 5 - - - - - - - 10.1 1022.7 0.0
14/12:30am SE 5 8 - - - - - - - 10.8 1022.7 0.0
14/12:00am SE 3 4 - - - - - - - 11.0 1022.7 0.0
 
Date/Time
CST
Wind Sea
Height
m
Swell Vis
km
Cloud Weather Temp
°C
Press
MSL
hPa
Rain since
9am
mm
Dir  Spd
kts
Gust
kts
Height
m
Period
s
Dir
13/11:30pm SSE 8 11 - - - - - - - 10.4 1022.8 0.0
13/11:00pm SSE 8 9 - - - - - - - 10.0 1023.0 0.0
13/10:30pm SSE 9 10 - - - - - - - 10.6 1023.3 0.0
13/10:00pm SE 9 10 - - - - - - - 12.1 1023.6 0.0
13/09:30pm SE 7 9 - - - - - - - 11.9 1023.7 0.0
13/09:00pm ESE 4 5 - - - - - - - 11.4 1023.8 0.0
13/08:30pm ESE 5 6 - - - - - - - 13.9 1023.6 0.0
13/08:00pm E 4 5 - - - - - - - 14.4 1023.4 0.0
13/07:30pm SE 4 7 - - - - - - - 15.3 1023.2 0.0
13/07:00pm SSW 7 8 - - - - - - - 15.9 1022.8 0.0
13/06:30pm SSW 9 11 - - - - - - - 16.7 1022.4 0.0
13/06:00pm SW 13 16 - - - - - - - 17.4 1022.1 0.0
13/05:30pm SW 15 17 - - - - - - - 18.6 1021.8 0.0
13/05:00pm SW 15 18 - - - - - - - 19.9 1021.5 0.0
13/04:30pm SW 14 17 - - - - - - - 21.0 1021.2 0.0
13/04:00pm SW 13 17 - - - - - - - 21.9 1021.2 0.0
13/03:30pm SW 12 15 - - - - - - - 22.3 1021.2 0.0
13/03:00pm SSW 12 16 - - - - - - - 22.3 1021.6 0.0
13/02:30pm SW 12 17 - - - - - - - 22.9 1021.7 0.0
13/02:00pm WSW 7 13 - - - - - - - 22.5 1022.1 0.0
13/01:30pm SW 8 13 - - - - - - - 22.7 1022.5 0.0
13/01:00pm WNW 7 12 - - - - - - - 21.9 1022.9 0.0
13/12:30pm WSW 5 8 - - - - - - - 21.5 1023.4 0.0
13/12:00pm WNW 5 7 - - - - - - - 21.1 1024.0 0.0
13/11:30am NNE 5 8 - - - - - - - 21.3 1024.5 0.0
13/11:00am WNW 5 7 - - - - - - - 19.7 1024.6 0.0
13/10:30am NNW 4 6 - - - - - - - 19.7 1024.9 0.0
13/10:00am NNE 4 6 - - - - - - - 19.0 1025.0 0.0
13/09:30am ENE 4 7 - - - - - - - 18.6 1025.1 0.0
13/09:00am ESE 6 8 - - - - - - - 17.3 1025.2 0.0
13/08:30am SE 9 11 - - - - - - - 15.5 1025.0 0.0
13/08:00am SE 9 11 - - - - - - - 12.6 1024.8 0.0
13/07:30am SSE 9 10 - - - - - - - 9.6 1024.6 0.0
13/07:00am SSE 10 11 - - - - - - - 7.6 1024.3 0.0
13/06:30am SSE 10 11 - - - - - - - 7.3 1024.3 0.0
13/06:00am SSE 10 11 - - - - - - - 7.3 1024.1 0.0
13/05:30am SSE 10 11 - - - - - - - 7.2 1023.9 0.0
13/05:00am SSE 10 11 - - - - - - - 7.7 1023.7 0.0
13/04:30am S 10 12 - - - - - - - 8.1 1023.7 0.0
13/04:00am S 9 10 - - - - - - - 7.7 1023.7 0.0
13/03:30am S 9 9 - - - - - - - 7.4 1023.7 0.0
13/03:00am S 9 10 - - - - - - - 7.7 1023.9 0.0
13/02:30am S 9 10 - - - - - - - 8.2 1024.0 0.0
13/02:00am S 8 9 - - - - - - - 7.5 1024.1 0.0
13/01:30am S 9 10 - - - - - - - 7.5 1023.9 0.0
13/01:00am SSE 6 7 - - - - - - - 6.4 1024.2 0.0
13/12:30am SE 6 7 - - - - - - - 8.1 1024.1 0.0
13/12:00am SE 5 7 - - - - - - - 7.6 1024.2 0.0
 
Date/Time
CST
Wind Sea
Height
m
Swell Vis
km
Cloud Weather Temp
°C
Press
MSL
hPa
Rain since
9am
mm
Dir  Spd
kts
Gust
kts
Height
m
Period
s
Dir
12/11:30pm SE 7 8 - - - - - - - 8.3 1024.3 0.0
12/11:00pm SE 8 9 - - - - - - - 8.9 1024.3 0.0
12/10:30pm SE 8 9 - - - - - - - 9.1 1024.4 0.0
12/10:00pm SE 7 7 - - - - - - - 9.6 1024.6 0.0
12/09:30pm SE 7 7 - - - - - - - 11.1 1024.5 0.0
12/09:00pm SSE 9 11 - - - - - - - 12.5 1024.1 0.0
12/08:30pm S 10 12 - - - - - - - 13.9 1023.9 0.0
12/08:00pm S 12 16 - - - - - - - 15.1 1023.6 0.0
12/07:30pm SSW 13 16 - - - - - - - 15.8 1023.5 0.0
12/07:00pm SSW 12 15 - - - - - - - 15.9 1023.2 0.0
12/06:30pm SSW 14 18 - - - - - - - 16.4 1022.8 0.0
12/06:00pm SSW 17 22 - - - - - - - 16.9 1022.4 0.0
12/05:30pm SSW 17 21 - - - - - - - 17.6 1022.4 0.0
12/05:00pm SW 16 20 - - - - - - - 18.3 1022.2 0.0
12/04:30pm SW 17 21 - - - - - - - 19.4 1022.0 0.0
12/04:00pm SW 14 19 - - - - - - - 20.3 1021.8 0.0
12/03:30pm SW 15 18 - - - - - - - 19.7 1021.9 0.0
12/03:00pm SW 14 18 - - - - - - - 20.8 1021.8 0.0
12/02:30pm SSW 12 16 - - - - - - - 20.4 1021.9 0.0
12/02:00pm S 11 18 - - - - - - - 20.8 1022.1 0.0
12/01:30pm S 6 10 - - - - - - - 21.5 1022.4 0.0
12/01:00pm SSW 8 14 - - - - - - - 20.3 1022.7 0.0
12/12:30pm SW 9 16 - - - - - - - 20.4 1023.7 0.0
12/12:00pm SSW 7 11 - - - - - - - 20.0 1024.2 0.0
12/11:30am SSW 8 11 - - - - - - - 18.9 1024.6 0.0
12/11:00am S 9 14 - - - - - - - 18.9 1025.0 0.0
12/10:30am SSE 9 13 - - - - - - - 18.1 1025.4 0.0
12/10:00am SE 10 14 - - - - - - - 17.6 1025.5 0.0
12/09:30am SSE 10 13 - - - - - - - 17.2 1025.7 0.0
12/09:00am SE 9 11 - - - - - - - 15.6 1025.7 0.0
12/08:30am SSE 9 10 - - - - - - - 14.0 1025.4 0.0
12/08:00am SSE 7 8 - - - - - - - 11.2 1025.5 0.0
12/07:30am SE 7 8 - - - - - - - 8.9 1024.8 0.0
12/07:00am SE 8 9 - - - - - - - 7.8 1024.4 0.0
12/06:30am SSE 7 8 - - - - - - - 7.3 1024.6 0.0
12/06:00am SSE 8 9 - - - - - - - 7.2 1024.4 0.0
12/05:30am S 8 9 - - - - - - - 7.5 1024.2 0.0
12/05:00am S 8 9 - - - - - - - 7.6 1023.9 0.0
12/04:30am SSE 8 9 - - - - - - - 7.9 1023.5 0.0
12/04:00am SE 10 11 - - - - - - - 8.8 1023.3 0.0
12/03:30am SSE 9 10 - - - - - - - 8.9 1023.2 0.0
12/03:00am SSE 9 9 - - - - - - - 7.7 1023.3 0.0
12/02:30am SSE 9 10 - - - - - - - 8.2 1023.6 0.0
12/02:00am SSE 9 11 - - - - - - - 8.6 1024.0 0.0
12/01:30am S 9 10 - - - - - - - 8.2 1024.2 0.0

Other formats

Comma delimited format used in spreadsheet applications
http://www.bom.gov.au/fwo/IDS60701/IDS60701.99749.axf

JavaScript Object Notation format (JSON) in row-major order
http://www.bom.gov.au/fwo/IDS60701/IDS60701.99749.json

Data quality

Most of these data are generated automatically and are frequently updated. Quality checks on data are not normally performed. It is possible for incorrect values to appear. Refer to information at About Latest Weather Observations and please check the disclaimer before using these data.